TimeEDT,TemperatureF,Dew PointF,Humidity,Sea Level PressureIn,VisibilityMPH,Wind Direction,Wind SpeedMPH,Gust SpeedMPH,PrecipitationIn,Events,Conditions,WindDirDegrees,DateUTC
12:15 AM,64.4,59.0,83,29.91,10.0,SW,5.8,-,N/A,,Clear,220,2013-09-08 04:15:00
12:35 AM,64.4,60.8,88,29.90,10.0,SW,5.8,-,N/A,,Scattered Clouds,220,2013-09-08 04:35:00
12:55 AM,64.4,60.8,88,29.90,10.0,SW,5.8,-,N/A,,Mostly Cloudy,220,2013-09-08 04:55:00
1:15 AM,66.2,60.8,83,29.90,10.0,SW,4.6,-,N/A,,Overcast,230,2013-09-08 05:15:00
1:35 AM,64.4,60.8,88,29.89,10.0,SW,4.6,-,N/A,,Overcast,230,2013-09-08 05:35:00
1:55 AM,64.4,60.8,88,29.88,10.0,SW,3.5,-,N/A,,Overcast,230,2013-09-08 05:55:00
2:15 AM,64.4,60.8,88,29.87,10.0,SW,3.5,-,N/A,,Mostly Cloudy,220,2013-09-08 06:15:00
2:35 AM,64.4,62.6,94,29.87,10.0,SW,4.6,-,N/A,,Overcast,230,2013-09-08 06:35:00
2:55 AM,64.4,62.6,94,29.87,10.0,WSW,4.6,-,N/A,,Overcast,250,2013-09-08 06:55:00
3:15 AM,64.4,62.6,94,29.86,10.0,WSW,5.8,-,N/A,,Overcast,240,2013-09-08 07:15:00
3:35 AM,66.2,62.6,88,29.85,10.0,SW,5.8,-,N/A,,Overcast,230,2013-09-08 07:35:00
3:55 AM,66.2,62.6,88,29.85,10.0,SW,4.6,-,N/A,,Mostly Cloudy,230,2013-09-08 07:55:00
4:15 AM,64.4,62.6,94,29.83,10.0,WSW,6.9,-,N/A,,Mostly Cloudy,240,2013-09-08 08:15:00
4:35 AM,64.4,60.8,88,29.83,10.0,West,5.8,-,N/A,,Mostly Cloudy,260,2013-09-08 08:35:00
4:55 AM,64.4,60.8,88,29.83,10.0,West,5.8,-,N/A,,Mostly Cloudy,260,2013-09-08 08:55:00
5:15 AM,64.4,59.0,83,29.83,10.0,West,3.5,-,N/A,,Scattered Clouds,260,2013-09-08 09:15:00
5:35 AM,64.4,59.0,83,29.82,10.0,SW,3.5,-,N/A,,Mostly Cloudy,230,2013-09-08 09:35:00
5:55 AM,64.4,59.0,83,29.83,10.0,WSW,4.6,-,N/A,,Overcast,250,2013-09-08 09:55:00
6:15 AM,64.4,57.2,77,29.82,10.0,SW,4.6,-,N/A,,Scattered Clouds,230,2013-09-08 10:15:00
6:35 AM,62.6,57.2,82,29.82,10.0,WSW,3.5,-,N/A,,Clear,250,2013-09-08 10:35:00
6:55 AM,62.6,57.2,82,29.83,10.0,WNW,3.5,-,N/A,,Mostly Cloudy,300,2013-09-08 10:55:00
7:15 AM,64.4,55.4,73,29.83,10.0,West,3.5,-,N/A,,Mostly Cloudy,270,2013-09-08 11:15:00
7:35 AM,66.2,55.4,68,29.83,10.0,Calm,Calm,-,N/A,,Scattered Clouds,0,2013-09-08 11:35:00
7:55 AM,66.2,57.2,73,29.83,10.0,West,5.8,-,N/A,,Scattered Clouds,260,2013-09-08 11:55:00
8:15 AM,66.2,57.2,73,29.83,10.0,West,3.5,-,N/A,,Scattered Clouds,280,2013-09-08 12:15:00
8:35 AM,68.0,57.2,68,29.82,10.0,West,5.8,-,N/A,,Mostly Cloudy,280,2013-09-08 12:35:00
8:55 AM,69.8,57.2,64,29.82,10.0,West,4.6,-,N/A,,Overcast,270,2013-09-08 12:55:00
9:15 AM,68.0,57.2,68,29.82,10.0,NW,4.6,-,N/A,,Mostly Cloudy,310,2013-09-08 13:15:00
9:35 AM,69.8,57.2,64,29.82,10.0,NW,5.8,-,N/A,,Partly Cloudy,320,2013-09-08 13:35:00
9:55 AM,71.6,59.0,64,29.81,10.0,WNW,8.1,-,N/A,,Clear,300,2013-09-08 13:55:00
10:15 AM,73.4,59.0,61,29.82,10.0,WNW,8.1,-,N/A,,Clear,290,2013-09-08 14:15:00
10:35 AM,73.4,60.8,65,29.81,10.0,NW,8.1,-,N/A,,Clear,310,2013-09-08 14:35:00
10:55 AM,73.4,60.8,65,29.82,10.0,NW,11.5,17.3,N/A,,Partly Cloudy,320,2013-09-08 14:55:00
11:15 AM,73.4,60.8,65,29.82,10.0,NNW,8.1,-,N/A,,Scattered Clouds,330,2013-09-08 15:15:00
11:35 AM,73.4,60.8,65,29.82,10.0,NNW,11.5,16.1,N/A,,Mostly Cloudy,340,2013-09-08 15:35:00
11:55 AM,75.2,60.8,61,29.82,10.0,NNW,15.0,20.7,N/A,,Scattered Clouds,340,2013-09-08 15:55:00
12:15 PM,73.4,60.8,65,29.83,10.0,NNW,12.7,19.6,N/A,,Mostly Cloudy,340,2013-09-08 16:15:00
12:35 PM,73.4,59.0,61,29.83,10.0,NNW,13.8,19.6,N/A,,Scattered Clouds,330,2013-09-08 16:35:00
12:55 PM,75.2,60.8,61,29.82,10.0,NNW,13.8,19.6,N/A,,Scattered Clouds,330,2013-09-08 16:55:00
1:15 PM,75.2,59.0,57,29.82,10.0,NNW,13.8,20.7,N/A,,Partly Cloudy,330,2013-09-08 17:15:00
1:35 PM,75.2,59.0,57,29.82,10.0,NNW,9.2,20.7,N/A,,Scattered Clouds,330,2013-09-08 17:35:00
1:55 PM,75.2,59.0,57,29.82,10.0,North,11.5,16.1,N/A,,Mostly Cloudy,350,2013-09-08 17:55:00
2:15 PM,77.0,57.2,50,29.82,10.0,NNW,8.1,19.6,N/A,,Scattered Clouds,330,2013-09-08 18:15:00
2:35 PM,77.0,55.4,47,29.82,10.0,NW,13.8,20.7,N/A,,Partly Cloudy,320,2013-09-08 18:35:00
2:55 PM,77.0,55.4,47,29.83,10.0,NNW,18.4,24.2,N/A,,Clear,330,2013-09-08 18:55:00
3:15 PM,75.2,55.4,50,29.84,10.0,North,12.7,26.5,N/A,,Partly Cloudy,350,2013-09-08 19:15:00
3:35 PM,75.2,53.6,47,29.85,10.0,NNW,13.8,23.0,N/A,,Clear,340,2013-09-08 19:35:00
3:55 PM,75.2,46.4,36,29.86,10.0,NW,15.0,24.2,N/A,,Clear,320,2013-09-08 19:55:00
4:15 PM,75.2,48.2,38,29.86,10.0,North,15.0,-,N/A,,Clear,350,2013-09-08 20:15:00
4:35 PM,75.2,46.4,36,29.87,10.0,North,15.0,20.7,N/A,,Clear,350,2013-09-08 20:35:00
4:55 PM,73.4,42.8,33,29.88,10.0,NNW,17.3,23.0,N/A,,Clear,340,2013-09-08 20:55:00
5:15 PM,73.4,44.6,36,29.89,10.0,NNW,11.5,18.4,N/A,,Clear,330,2013-09-08 21:15:00
5:35 PM,71.6,44.6,38,29.90,10.0,North,11.5,18.4,N/A,,Clear,350,2013-09-08 21:35:00
5:55 PM,71.6,46.4,41,29.92,10.0,North,9.2,-,N/A,,Clear,10,2013-09-08 21:55:00
6:15 PM,69.8,44.6,40,29.92,10.0,North,8.1,-,N/A,,Clear,350,2013-09-08 22:15:00
6:35 PM,69.8,44.6,40,29.93,10.0,North,6.9,-,N/A,,Clear,360,2013-09-08 22:35:00
6:55 PM,66.2,44.6,46,29.95,10.0,NNE,3.5,-,N/A,,Clear,20,2013-09-08 22:55:00
7:15 PM,64.4,46.4,52,29.96,10.0,North,4.6,-,N/A,,Clear,360,2013-09-08 23:15:00
7:35 PM,64.4,46.4,52,29.98,10.0,North,5.8,-,N/A,,Clear,10,2013-09-08 23:35:00
7:55 PM,64.4,44.6,49,29.98,10.0,North,5.8,-,N/A,,Clear,350,2013-09-08 23:55:00
8:15 PM,64.4,42.8,45,30.00,10.0,North,8.1,-,N/A,,Clear,350,2013-09-09 00:15:00
8:35 PM,62.6,42.8,48,30.02,10.0,North,6.9,-,N/A,,Clear,350,2013-09-09 00:35:00
8:55 PM,62.6,42.8,48,30.03,10.0,North,4.6,-,N/A,,Clear,10,2013-09-09 00:55:00
9:15 PM,60.8,42.8,52,30.05,10.0,North,3.5,-,N/A,,Clear,360,2013-09-09 01:15:00
9:35 PM,60.8,42.8,52,30.06,10.0,North,4.6,-,N/A,,Clear,10,2013-09-09 01:35:00
9:55 PM,59.0,42.8,55,30.07,10.0,Calm,Calm,-,N/A,,Clear,0,2013-09-09 01:55:00
10:15 PM,59.0,42.8,55,30.07,10.0,Calm,Calm,-,N/A,,Clear,0,2013-09-09 02:15:00
10:35 PM,57.2,42.8,59,30.08,10.0,North,4.6,-,N/A,,Clear,350,2013-09-09 02:35:00
10:55 PM,55.4,42.8,63,30.08,10.0,NNW,3.5,-,N/A,,Clear,330,2013-09-09 02:55:00
11:15 PM,55.4,42.8,63,30.09,10.0,North,4.6,-,N/A,,Clear,360,2013-09-09 03:15:00
11:35 PM,55.4,41.0,58,30.09,10.0,NNW,3.5,-,N/A,,Clear,340,2013-09-09 03:35:00
11:55 PM,53.6,42.8,67,30.10,10.0,Calm,Calm,-,N/A,,Clear,0,2013-09-09 03:55:00